createdAt,value
2023-05-04T00:01:59.102Z,5.29
2023-05-04T00:04:25.516Z,5.17
2023-05-04T00:06:51.872Z,5.05
2023-05-04T00:09:18.360Z,5.02
2023-05-04T00:11:44.731Z,5.16
2023-05-04T00:14:11.045Z,5.01
2023-05-04T00:16:37.494Z,4.98
2023-05-04T00:19:03.952Z,4.99
2023-05-04T00:21:30.256Z,4.89
2023-05-04T00:23:56.606Z,4.81
2023-05-04T00:26:22.917Z,4.73
2023-05-04T00:28:49.233Z,4.71
2023-05-04T00:31:18.865Z,4.65
2023-05-04T00:33:45.778Z,4.63
2023-05-04T00:36:13.878Z,3.99
2023-05-04T00:38:50.260Z,4.36
2023-05-04T00:41:17.632Z,4.44
2023-05-04T00:43:44.320Z,4.35
2023-05-04T00:46:11.099Z,4.32
2023-05-04T00:48:38.327Z,4.26
2023-05-04T00:51:04.676Z,4.24
2023-05-04T00:53:31.165Z,4.14
2023-05-04T00:55:57.891Z,4.03
2023-05-04T00:58:24.586Z,4.00
2023-05-04T01:00:51.744Z,3.96
2023-05-04T01:03:18.751Z,3.91
2023-05-04T01:05:53.446Z,3.93
2023-05-04T01:08:27.401Z,3.83
2023-05-04T01:11:00.600Z,3.72
2023-05-04T01:13:28.001Z,3.72
2023-05-04T01:15:54.507Z,3.69
2023-05-04T01:18:21.078Z,3.66
2023-05-04T01:20:47.382Z,3.70
2023-05-04T01:23:13.827Z,3.75
2023-05-04T01:26:00.368Z,3.74
2023-05-04T01:28:31.097Z,3.65
2023-05-04T01:30:59.968Z,3.58
2023-05-04T01:33:29.088Z,3.51
2023-05-04T01:35:55.676Z,3.45
2023-05-04T01:38:22.183Z,3.44
2023-05-04T01:40:48.465Z,3.38
2023-05-04T01:43:14.789Z,3.30
2023-05-04T01:45:41.077Z,3.33
2023-05-04T01:48:07.500Z,3.18
2023-05-04T01:50:33.927Z,3.28
2023-05-04T01:53:00.234Z,3.22
2023-05-04T01:55:26.662Z,3.16
2023-05-04T01:57:52.970Z,3.16
2023-05-04T02:00:19.280Z,3.15
2023-05-04T02:02:46.034Z,3.17
2023-05-04T02:05:12.445Z,3.14
2023-05-04T02:07:38.731Z,3.16
2023-05-04T02:10:05.502Z,3.16
2023-05-04T02:12:32.046Z,3.20
2023-05-04T02:14:58.380Z,3.17
2023-05-04T02:17:24.768Z,3.09
2023-05-04T02:19:52.392Z,3.04
2023-05-04T02:22:18.744Z,3.11
2023-05-04T02:24:45.188Z,3.08
2023-05-04T02:27:11.499Z,3.03
2023-05-04T02:29:38.392Z,2.98
2023-05-04T02:32:04.900Z,3.01
2023-05-04T02:34:31.454Z,3.36
2023-05-04T02:36:57.802Z,3.65
2023-05-04T02:39:24.140Z,3.40
2023-05-04T02:41:50.526Z,3.50
2023-05-04T02:44:16.836Z,3.39
2023-05-04T02:46:43.125Z,3.35
2023-05-04T02:49:09.591Z,3.28
2023-05-04T02:51:35.892Z,3.27
2023-05-04T02:54:02.228Z,3.23
2023-05-04T02:56:28.547Z,3.39
2023-05-04T02:58:54.878Z,3.24
2023-05-04T03:01:21.276Z,3.18
2023-05-04T03:03:47.737Z,3.15
2023-05-04T03:06:14.097Z,3.13
2023-05-04T03:08:40.408Z,3.20
2023-05-04T03:11:06.728Z,3.15
2023-05-04T03:13:33.019Z,3.15
2023-05-04T03:15:59.354Z,3.18
2023-05-04T03:18:25.655Z,3.11
2023-05-04T03:20:52.206Z,3.06
2023-05-04T03:23:18.543Z,3.10
2023-05-04T03:25:44.867Z,2.99
2023-05-04T03:28:11.151Z,2.96
2023-05-04T03:30:37.444Z,2.86
2023-05-04T03:33:03.811Z,2.79
2023-05-04T03:35:36.391Z,2.73
2023-05-04T03:38:05.586Z,2.71
2023-05-04T03:40:32.177Z,2.69
2023-05-04T03:42:58.491Z,2.71
2023-05-04T03:45:28.337Z,2.65
2023-05-04T03:47:55.741Z,2.63
2023-05-04T03:50:22.430Z,2.58
2023-05-04T03:52:49.030Z,2.55
2023-05-04T03:55:15.506Z,2.54
2023-05-04T03:57:41.801Z,2.60
2023-05-04T04:00:09.093Z,2.53
2023-05-04T04:02:35.538Z,2.52
2023-05-04T04:05:01.949Z,2.50
2023-05-04T04:07:28.263Z,2.42
2023-05-04T04:09:54.567Z,2.51
2023-05-04T04:12:20.879Z,2.55
2023-05-04T04:14:48.565Z,2.62
2023-05-04T04:17:15.014Z,2.65
2023-05-04T04:19:41.305Z,2.70
2023-05-04T04:22:07.627Z,2.64
2023-05-04T04:24:38.972Z,2.67
2023-05-04T04:27:08.477Z,2.71
2023-05-04T04:29:39.493Z,2.74
2023-05-04T04:32:08.525Z,2.77
2023-05-04T04:34:38.624Z,2.82
2023-05-04T04:37:06.042Z,2.85
2023-05-04T04:39:33.502Z,2.81
2023-05-04T04:41:59.960Z,2.83
2023-05-04T04:44:30.417Z,2.89
2023-05-04T04:46:57.936Z,2.95
2023-05-04T04:49:26.068Z,2.98
2023-05-04T04:51:53.418Z,3.07
2023-05-04T04:54:20.774Z,3.10
2023-05-04T04:56:48.147Z,3.20
2023-05-04T04:59:26.759Z,3.28
2023-05-04T05:01:53.104Z,3.37
2023-05-04T05:04:19.871Z,3.43
2023-05-04T05:06:46.207Z,3.51
2023-05-04T05:09:12.648Z,3.59
2023-05-04T05:11:38.989Z,3.69
2023-05-04T05:14:07.470Z,3.79
2023-05-04T05:16:33.799Z,3.90
2023-05-04T05:19:00.168Z,4.03
2023-05-04T05:21:26.774Z,4.16
2023-05-04T05:23:53.124Z,4.29
2023-05-04T05:26:19.424Z,4.37
2023-05-04T05:28:46.266Z,4.50
2023-05-04T05:31:12.635Z,4.62
2023-05-04T05:33:39.111Z,4.74
2023-05-04T05:36:09.647Z,4.86
2023-05-04T05:38:35.950Z,4.97
2023-05-04T05:41:04.333Z,5.16
2023-05-04T05:43:30.668Z,5.39
2023-05-04T05:45:57.425Z,5.49
2023-05-04T05:48:23.750Z,5.62
2023-05-04T05:50:50.222Z,5.74
2023-05-04T05:53:16.527Z,5.79
2023-05-04T05:55:42.844Z,5.96
2023-05-04T05:58:09.145Z,6.04
2023-05-04T06:00:35.476Z,6.19
2023-05-04T06:03:01.914Z,6.33
2023-05-04T06:05:28.394Z,6.42
2023-05-04T06:07:54.696Z,6.51
2023-05-04T06:10:21.094Z,6.59
2023-05-04T06:13:06.867Z,6.66
2023-05-04T06:15:33.312Z,6.74
2023-05-04T06:17:59.811Z,6.87
2023-05-04T06:20:26.172Z,6.95
2023-05-04T06:23:01.672Z,7.08
2023-05-04T06:25:27.968Z,7.14
2023-05-04T06:27:54.335Z,7.30
2023-05-04T06:30:24.234Z,7.38
2023-05-04T06:32:50.864Z,7.49
2023-05-04T06:35:17.320Z,7.64
2023-05-04T06:37:43.666Z,7.75
2023-05-04T06:40:10.524Z,7.83
2023-05-04T06:42:36.994Z,7.92
2023-05-04T06:45:03.484Z,8.02
2023-05-04T06:47:29.814Z,8.25
2023-05-04T06:49:56.212Z,8.36
2023-05-04T06:52:22.530Z,8.40
2023-05-04T06:54:48.840Z,8.49
2023-05-04T06:57:15.237Z,8.62
2023-05-04T06:59:41.577Z,8.71
2023-05-04T07:02:07.919Z,8.76
2023-05-04T07:04:34.231Z,8.86
2023-05-04T07:07:00.632Z,8.91
2023-05-04T07:09:26.961Z,9.04
2023-05-04T07:11:53.256Z,9.25
2023-05-04T07:14:19.599Z,9.24
2023-05-04T07:16:46.187Z,9.37
2023-05-04T07:19:12.793Z,9.38
2023-05-04T07:21:39.150Z,9.53
2023-05-04T07:24:06.933Z,9.57
2023-05-04T07:26:33.267Z,9.68
2023-05-04T07:28:59.595Z,10.08
2023-05-04T07:31:26.999Z,10.15
2023-05-04T07:33:54.468Z,10.43
2023-05-04T07:36:20.909Z,10.46
2023-05-04T07:38:47.521Z,10.51
2023-05-04T07:41:13.880Z,10.66
2023-05-04T07:43:40.220Z,10.77
2023-05-04T07:46:06.554Z,10.96
2023-05-04T07:48:33.700Z,10.99
2023-05-04T07:51:01.057Z,11.08
2023-05-04T07:53:27.574Z,11.55
2023-05-04T07:56:00.968Z,11.49
2023-05-04T07:58:27.337Z,11.63
2023-05-04T08:00:53.673Z,11.66
2023-05-04T08:03:20.024Z,11.86
2023-05-04T08:05:46.444Z,11.82
2023-05-04T08:08:13.768Z,11.90
2023-05-04T08:10:40.865Z,12.26
2023-05-04T08:13:07.196Z,12.33
2023-05-04T08:15:33.619Z,12.54
2023-05-04T08:18:00.047Z,12.44
2023-05-04T08:20:26.513Z,12.63
2023-05-04T08:22:55.936Z,12.80
2023-05-04T08:25:22.736Z,12.80
2023-05-04T08:27:49.438Z,12.93
2023-05-04T08:30:16.802Z,12.93
2023-05-04T08:32:43.126Z,12.91
2023-05-04T08:35:14.575Z,13.17
2023-05-04T08:37:40.888Z,13.24
2023-05-04T08:40:07.648Z,13.44
2023-05-04T08:42:34.639Z,13.46
2023-05-04T08:45:01.040Z,13.52
2023-05-04T08:47:27.994Z,13.74
2023-05-04T08:49:56.375Z,13.93
2023-05-04T08:52:26.972Z,13.95
2023-05-04T08:54:55.394Z,14.06
2023-05-04T08:57:23.438Z,14.23
2023-05-04T08:59:53.969Z,14.34
2023-05-04T09:02:22.300Z,14.37
2023-05-04T09:04:49.773Z,14.34
2023-05-04T09:07:17.445Z,14.28
2023-05-04T09:09:43.841Z,14.49
2023-05-04T09:12:10.178Z,14.58
2023-05-04T09:14:37.114Z,14.69
2023-05-04T09:17:12.049Z,14.97
2023-05-04T09:19:44.631Z,15.12
2023-05-04T09:22:14.925Z,15.21
2023-05-04T09:24:41.253Z,15.41
2023-05-04T09:27:15.689Z,15.63
2023-05-04T09:29:42.481Z,15.51
2023-05-04T09:32:13.271Z,15.65
2023-05-04T09:35:05.894Z,15.78
2023-05-04T09:37:42.631Z,15.88
2023-05-04T09:40:09.257Z,16.20
2023-05-04T09:42:35.959Z,16.35
2023-05-04T09:45:03.957Z,16.53
2023-05-04T09:47:34.423Z,16.80
2023-05-04T09:50:11.005Z,17.07
2023-05-04T09:52:37.577Z,17.20
2023-05-04T09:55:04.860Z,17.42
2023-05-04T09:57:31.944Z,17.61
2023-05-04T09:59:58.229Z,17.67
2023-05-04T10:02:24.684Z,17.82
2023-05-04T10:04:52.118Z,17.87
2023-05-04T10:07:19.163Z,18.36
2023-05-04T10:09:46.737Z,18.56
2023-05-04T10:12:13.183Z,18.54
2023-05-04T10:14:39.680Z,18.58
2023-05-04T10:17:24.921Z,18.96
2023-05-04T10:20:10.232Z,19.05
2023-05-04T10:22:36.579Z,19.13
2023-05-04T10:25:19.726Z,19.25
2023-05-04T10:27:46.004Z,19.33
2023-05-04T10:30:13.269Z,19.42
2023-05-04T10:32:40.016Z,19.28
2023-05-04T10:35:07.882Z,19.41
2023-05-04T10:37:36.114Z,19.61
2023-05-04T10:40:02.426Z,19.51
2023-05-04T10:42:28.732Z,19.36
2023-05-04T10:44:55.860Z,19.25
2023-05-04T10:47:30.822Z,19.65
2023-05-04T10:50:04.548Z,19.57
2023-05-04T10:52:31.903Z,19.48
2023-05-04T10:55:02.509Z,19.58
2023-05-04T10:57:31.318Z,19.76
2023-05-04T10:59:58.843Z,19.52
2023-05-04T11:02:26.542Z,19.56
2023-05-04T11:05:04.592Z,19.71
2023-05-04T11:07:37.068Z,19.72
2023-05-04T11:10:10.452Z,19.99
2023-05-04T11:12:37.803Z,20.27
2023-05-04T11:15:10.627Z,20.03
2023-05-04T11:17:50.539Z,20.05
2023-05-04T11:20:24.948Z,19.97
2023-05-04T11:23:03.752Z,20.05
2023-05-04T11:25:30.794Z,20.11
2023-05-04T11:27:58.683Z,20.10
2023-05-04T11:30:35.004Z,20.20
2023-05-04T11:33:11.620Z,20.15
2023-05-04T11:35:38.397Z,20.01
2023-05-04T11:38:04.817Z,20.17
2023-05-04T11:40:31.398Z,20.14
2023-05-04T11:42:58.354Z,20.16
2023-05-04T11:45:24.720Z,20.18
2023-05-04T11:47:52.025Z,20.22
2023-05-04T11:50:20.999Z,20.43
2023-05-04T11:52:47.826Z,20.40
2023-05-04T11:55:27.497Z,20.84
2023-05-04T11:58:00.731Z,20.74
2023-05-04T12:00:39.845Z,20.21
2023-05-04T12:03:08.736Z,20.39
2023-05-04T12:05:36.744Z,20.71
2023-05-04T12:08:12.400Z,20.70
2023-05-04T12:10:42.001Z,20.61
2023-05-04T12:13:17.568Z,20.53
2023-05-04T12:15:46.335Z,20.56
2023-05-04T12:18:29.703Z,20.71
2023-05-04T12:21:17.608Z,20.48
2023-05-04T12:23:47.444Z,20.96
2023-05-04T12:26:14.197Z,20.98
2023-05-04T12:28:43.586Z,21.10
2023-05-04T12:31:11.161Z,21.23
2023-05-04T12:33:37.712Z,21.27
2023-05-04T12:36:07.458Z,21.10
2023-05-04T12:38:40.932Z,21.18
2023-05-04T12:41:10.681Z,21.05
2023-05-04T12:43:37.421Z,21.32
2023-05-04T12:46:04.931Z,21.38
2023-05-04T12:48:34.840Z,21.28
2023-05-04T12:51:06.247Z,21.30
2023-05-04T12:53:32.641Z,21.26
2023-05-04T12:55:59.854Z,21.51
2023-05-04T12:58:26.439Z,21.61
2023-05-04T13:00:53.103Z,21.25
2023-05-04T13:03:19.822Z,21.56
2023-05-04T13:05:47.442Z,21.76
2023-05-04T13:08:13.800Z,22.01
2023-05-04T13:10:42.399Z,21.88
2023-05-04T13:13:09.816Z,21.59
2023-05-04T13:15:36.184Z,21.63
2023-05-04T13:18:07.040Z,21.59
2023-05-04T13:20:33.513Z,21.72
2023-05-04T13:22:59.987Z,21.87
2023-05-04T13:25:26.968Z,22.11
2023-05-04T13:27:53.385Z,22.34
2023-05-04T13:30:21.990Z,22.45
2023-05-04T13:32:49.183Z,22.67
2023-05-04T13:35:15.882Z,22.41
2023-05-04T13:37:43.335Z,22.46
2023-05-04T13:40:11.013Z,22.05
2023-05-04T13:42:37.669Z,21.99
2023-05-04T13:45:04.487Z,22.35
2023-05-04T13:47:33.176Z,22.14
2023-05-04T13:49:59.478Z,22.18
2023-05-04T13:52:27.040Z,22.22
2023-05-04T13:54:53.562Z,22.52
2023-05-04T13:57:23.340Z,22.56
2023-05-04T14:00:05.221Z,22.63
2023-05-04T14:02:33.801Z,22.72
2023-05-04T14:05:00.271Z,22.62
2023-05-04T14:07:26.628Z,22.68
2023-05-04T14:09:53.112Z,22.61
2023-05-04T14:12:21.430Z,22.37
2023-05-04T14:14:47.814Z,22.27
2023-05-04T14:17:14.183Z,22.54
2023-05-04T14:19:40.680Z,22.47
2023-05-04T14:22:07.032Z,22.34
2023-05-04T14:24:33.502Z,22.92
2023-05-04T14:26:59.846Z,22.57
2023-05-04T14:29:26.669Z,22.54
2023-05-04T14:31:53.414Z,22.70
2023-05-04T14:34:19.833Z,22.78
2023-05-04T14:36:46.154Z,22.75
2023-05-04T14:39:12.569Z,22.78
2023-05-04T14:41:39.011Z,23.17
2023-05-04T14:44:05.568Z,23.03
2023-05-04T14:46:32.317Z,22.85
2023-05-04T14:48:58.952Z,22.98
2023-05-04T14:51:29.890Z,23.04
2023-05-04T14:53:56.660Z,23.07
2023-05-04T14:56:23.316Z,22.81
2023-05-04T14:58:49.629Z,22.71
2023-05-04T15:01:16.311Z,22.94
2023-05-04T15:03:42.898Z,22.84
2023-05-04T15:06:10.164Z,23.14
2023-05-04T15:08:36.593Z,22.85
2023-05-04T15:11:04.827Z,22.86
2023-05-04T15:13:31.796Z,22.78
2023-05-04T15:15:58.631Z,22.79
2023-05-04T15:18:26.065Z,22.52
2023-05-04T15:20:52.372Z,22.64
2023-05-04T15:23:18.666Z,22.88
2023-05-04T15:25:45.069Z,22.80
2023-05-04T15:28:11.886Z,23.08
2023-05-04T15:30:38.816Z,22.78
2023-05-04T15:33:05.614Z,23.12
2023-05-04T15:35:32.660Z,23.12
2023-05-04T15:37:59.147Z,23.09
2023-05-04T15:40:25.612Z,23.04
2023-05-04T15:42:52.233Z,23.25
2023-05-04T15:45:19.995Z,22.97
2023-05-04T15:47:54.194Z,23.11
2023-05-04T15:50:21.056Z,22.93
2023-05-04T15:52:47.417Z,22.93
2023-05-04T15:55:25.215Z,23.14
2023-05-04T15:57:54.310Z,23.13
2023-05-04T16:00:21.329Z,23.45
2023-05-04T16:02:47.818Z,23.60
2023-05-04T16:05:14.322Z,23.22
2023-05-04T16:07:40.734Z,23.07
2023-05-04T16:10:08.837Z,23.28
2023-05-04T16:12:35.409Z,23.47
2023-05-04T16:15:01.753Z,23.59
2023-05-04T16:17:29.308Z,23.57
2023-05-04T16:19:55.831Z,23.34
2023-05-04T16:22:23.156Z,23.29
2023-05-04T16:24:49.503Z,22.91
2023-05-04T16:27:16.344Z,23.08
2023-05-04T16:29:42.685Z,23.04
2023-05-04T16:32:09.003Z,22.99
2023-05-04T16:34:37.377Z,22.98
2023-05-04T16:37:03.686Z,22.69
2023-05-04T16:39:34.374Z,22.64
2023-05-04T16:42:02.181Z,23.00
2023-05-04T16:44:29.429Z,22.74
2023-05-04T16:46:55.803Z,22.54
2023-05-04T16:49:24.327Z,22.42
2023-05-04T16:51:55.706Z,22.30
2023-05-04T16:54:23.190Z,22.19
2023-05-04T16:56:52.781Z,22.24
2023-05-04T16:59:19.182Z,22.19
2023-05-04T17:01:45.673Z,22.23
2023-05-04T17:04:13.556Z,22.12
2023-05-04T17:06:39.877Z,22.01
2023-05-04T17:09:06.991Z,22.03
2023-05-04T17:11:33.635Z,21.89
2023-05-04T17:14:01.164Z,21.59
2023-05-04T17:16:27.662Z,21.49
2023-05-04T17:18:58.249Z,21.34
2023-05-04T17:21:27.910Z,21.34
2023-05-04T17:24:02.335Z,21.13
2023-05-04T17:26:31.857Z,21.05
2023-05-04T17:28:58.205Z,20.66
2023-05-04T17:31:28.660Z,20.58
2023-05-04T17:33:55.010Z,20.47
2023-05-04T17:36:21.407Z,20.20
2023-05-04T17:38:47.723Z,19.92
2023-05-04T17:41:16.054Z,19.70
2023-05-04T17:43:42.418Z,19.48
2023-05-04T17:46:08.866Z,19.28
2023-05-04T17:48:36.652Z,19.10
2023-05-04T17:51:03.054Z,18.97
2023-05-04T17:53:29.554Z,18.80
2023-05-04T17:55:56.060Z,18.65
2023-05-04T17:58:22.412Z,18.53
2023-05-04T18:00:50.608Z,18.20
2023-05-04T18:03:19.297Z,18.02
2023-05-04T18:05:46.793Z,17.89
2023-05-04T18:08:13.220Z,17.78
2023-05-04T18:10:39.653Z,17.61
2023-05-04T18:13:06.086Z,17.48
2023-05-04T18:15:32.553Z,17.46
2023-05-04T18:17:58.968Z,17.33
2023-05-04T18:20:25.330Z,17.23
2023-05-04T18:22:52.352Z,16.76
2023-05-04T18:25:18.724Z,16.40
2023-05-04T18:27:46.202Z,16.39
2023-05-04T18:30:12.761Z,16.06
2023-05-04T18:32:41.221Z,15.79
2023-05-04T18:35:32.637Z,15.63
2023-05-04T18:37:58.945Z,15.37
2023-05-04T18:40:26.338Z,15.12
2023-05-04T18:42:52.659Z,14.91
2023-05-04T18:45:19.059Z,14.83
2023-05-04T18:47:45.413Z,14.85
2023-05-04T18:50:11.842Z,14.73
2023-05-04T18:52:38.227Z,14.61
2023-05-04T18:55:12.616Z,14.56
2023-05-04T18:57:41.027Z,14.39
2023-05-04T19:00:08.964Z,14.31
2023-05-04T19:02:36.526Z,14.05
2023-05-04T19:05:05.057Z,13.85
2023-05-04T19:07:31.430Z,13.75
2023-05-04T19:09:57.940Z,13.55
2023-05-04T19:12:27.489Z,13.54
2023-05-04T19:14:55.136Z,13.48
2023-05-04T19:17:29.492Z,13.27
2023-05-04T19:19:57.075Z,13.15
2023-05-04T19:22:26.502Z,12.98
2023-05-04T19:25:04.071Z,12.89
2023-05-04T19:27:38.309Z,12.76
2023-05-04T19:30:05.089Z,12.79
2023-05-04T19:32:32.775Z,12.74
2023-05-04T19:34:59.170Z,12.59
2023-05-04T19:37:30.751Z,12.59
2023-05-04T19:39:57.923Z,12.42
2023-05-04T19:42:24.297Z,12.36
2023-05-04T19:44:50.853Z,12.32
2023-05-04T19:47:18.014Z,12.23
2023-05-04T19:49:50.252Z,12.21
2023-05-04T19:52:20.755Z,12.04
2023-05-04T19:54:53.423Z,11.81
2023-05-04T19:57:20.794Z,11.76
2023-05-04T19:59:50.681Z,11.72
2023-05-04T20:02:17.020Z,11.73
2023-05-04T20:04:43.416Z,11.71
2023-05-04T20:07:10.766Z,11.63
2023-05-04T20:09:38.102Z,11.68
2023-05-04T20:12:05.606Z,11.59
2023-05-04T20:14:31.961Z,11.51
2023-05-04T20:16:58.352Z,11.49
2023-05-04T20:19:32.763Z,11.36
2023-05-04T20:21:59.075Z,11.32
2023-05-04T20:24:26.168Z,11.30
2023-05-04T20:26:54.504Z,11.38
2023-05-04T20:29:21.128Z,11.23
2023-05-04T20:31:47.468Z,11.12
2023-05-04T20:34:13.890Z,11.10
2023-05-04T20:36:40.200Z,11.21
2023-05-04T20:39:06.997Z,11.04
2023-05-04T20:41:33.511Z,11.07
2023-05-04T20:44:00.141Z,10.96
2023-05-04T20:46:26.690Z,10.84
2023-05-04T20:48:53.321Z,10.76
2023-05-04T20:51:19.673Z,10.69
2023-05-04T20:54:00.154Z,10.63
2023-05-04T20:56:26.776Z,10.63
2023-05-04T20:58:53.360Z,10.95
2023-05-04T21:01:19.727Z,10.88
2023-05-04T21:03:49.286Z,10.82
2023-05-04T21:06:15.705Z,10.99
2023-05-04T21:08:42.030Z,11.25
2023-05-04T21:11:09.343Z,11.15
2023-05-04T21:13:35.759Z,10.89
2023-05-04T21:16:02.084Z,10.73
2023-05-04T21:18:28.419Z,10.71
2023-05-04T21:20:54.866Z,10.69
2023-05-04T21:23:21.308Z,10.60
2023-05-04T21:25:47.602Z,10.62
2023-05-04T21:28:13.918Z,10.54
2023-05-04T21:30:40.828Z,10.46
2023-05-04T21:33:07.240Z,10.43
2023-05-04T21:35:33.635Z,10.38
2023-05-04T21:37:59.973Z,10.37
2023-05-04T21:40:27.535Z,10.40
2023-05-04T21:42:53.973Z,10.49
2023-05-04T21:45:20.356Z,10.40
2023-05-04T21:47:46.839Z,10.47
2023-05-04T21:50:13.242Z,10.34
2023-05-04T21:52:58.374Z,10.18
2023-05-04T21:55:47.586Z,10.10
2023-05-04T21:58:16.468Z,9.95
2023-05-04T22:00:43.565Z,9.86
2023-05-04T22:03:10.423Z,9.81
2023-05-04T22:05:37.052Z,9.69
2023-05-04T22:08:03.637Z,9.70
2023-05-04T22:10:30.050Z,9.64
2023-05-04T22:12:56.411Z,9.68
2023-05-04T22:15:41.963Z,9.63
2023-05-04T22:18:12.833Z,9.60
2023-05-04T22:20:40.254Z,9.50
2023-05-04T22:23:06.683Z,9.45
2023-05-04T22:25:33.023Z,9.33
2023-05-04T22:27:59.633Z,9.27
2023-05-04T22:30:26.862Z,9.19
2023-05-04T22:32:53.454Z,9.21
2023-05-04T22:35:20.893Z,9.25
2023-05-04T22:37:47.438Z,9.23
2023-05-04T22:40:13.925Z,9.23
2023-05-04T22:42:40.329Z,9.21
2023-05-04T22:45:07.015Z,9.03
2023-05-04T22:47:33.380Z,8.98
2023-05-04T22:49:59.702Z,8.96
2023-05-04T22:52:39.615Z,8.99
2023-05-04T22:55:07.137Z,8.95
2023-05-04T22:57:33.502Z,8.87
2023-05-04T22:59:59.815Z,8.82
2023-05-04T23:02:27.299Z,8.77
2023-05-04T23:04:53.619Z,8.69
2023-05-04T23:07:20.035Z,8.71
2023-05-04T23:09:46.478Z,8.67
2023-05-04T23:12:20.271Z,8.64
2023-05-04T23:14:49.392Z,8.63
2023-05-04T23:17:15.780Z,8.58
2023-05-04T23:19:42.104Z,8.63
2023-05-04T23:22:08.411Z,8.60
2023-05-04T23:24:34.779Z,8.57
2023-05-04T23:27:01.958Z,8.54
2023-05-04T23:29:28.262Z,8.52
2023-05-04T23:31:54.703Z,8.51
2023-05-04T23:34:21.048Z,8.59
2023-05-04T23:36:47.767Z,8.60
2023-05-04T23:39:16.216Z,8.56
2023-05-04T23:41:42.515Z,8.56
2023-05-04T23:44:08.831Z,8.57
2023-05-04T23:46:35.209Z,8.57
2023-05-04T23:49:01.547Z,8.57
2023-05-04T23:51:30.861Z,8.64
2023-05-04T23:53:57.348Z,8.60
2023-05-04T23:56:23.859Z,8.49
2023-05-04T23:58:50.307Z,8.46
